sensor_id;sensor_type;location;lat;lon;timestamp;P1;durP1;ratioP1;P2;durP2;ratioP2
72586;SDS011;60621;49.576;11.024;2023-02-01T00:00:40;10.50;;;5.28;;
72586;SDS011;60621;49.576;11.024;2023-02-01T00:01:42;10.75;;;5.30;;
72586;SDS011;60621;49.576;11.024;2023-02-01T00:02:43;11.85;;;6.38;;
72586;SDS011;60621;49.576;11.024;2023-02-01T00:03:45;11.23;;;5.38;;
72586;SDS011;60621;49.576;11.024;2023-02-01T00:04:47;9.77;;;5.20;;
72586;SDS011;60621;49.576;11.024;2023-02-01T00:05:58;10.38;;;5.35;;
72586;SDS011;60621;49.576;11.024;2023-02-01T00:07:00;10.80;;;5.25;;
72586;SDS011;60621;49.576;11.024;2023-02-01T00:08:02;10.45;;;4.90;;
72586;SDS011;60621;49.576;11.024;2023-02-01T00:09:04;9.80;;;5.10;;
72586;SDS011;60621;49.576;11.024;2023-02-01T00:10:06;12.25;;;5.53;;
72586;SDS011;60621;49.576;11.024;2023-02-01T00:11:09;11.07;;;5.25;;
72586;SDS011;60621;49.576;11.024;2023-02-01T00:12:12;10.63;;;4.95;;
72586;SDS011;60621;49.576;11.024;2023-02-01T00:13:13;9.25;;;4.95;;
72586;SDS011;60621;49.576;11.024;2023-02-01T00:14:15;9.57;;;4.97;;
72586;SDS011;60621;49.576;11.024;2023-02-01T00:15:16;13.38;;;5.95;;
72586;SDS011;60621;49.576;11.024;2023-02-01T00:16:19;11.10;;;5.43;;
72586;SDS011;60621;49.576;11.024;2023-02-01T00:17:22;11.90;;;5.70;;
72586;SDS011;60621;49.576;11.024;2023-02-01T00:18:24;11.77;;;5.78;;
72586;SDS011;60621;49.576;11.024;2023-02-01T00:19:26;9.77;;;5.18;;
72586;SDS011;60621;49.576;11.024;2023-02-01T00:20:27;11.27;;;5.43;;
72586;SDS011;60621;49.576;11.024;2023-02-01T00:21:31;11.77;;;5.60;;
72586;SDS011;60621;49.576;11.024;2023-02-01T00:22:33;11.77;;;5.53;;
72586;SDS011;60621;49.576;11.024;2023-02-01T00:23:35;12.13;;;5.40;;
72586;SDS011;60621;49.576;11.024;2023-02-01T00:26:42;10.38;;;5.18;;
72586;SDS011;60621;49.576;11.024;2023-02-01T00:27:48;14.50;;;5.55;;
72586;SDS011;60621;49.576;11.024;2023-02-01T00:28:50;10.77;;;5.47;;
72586;SDS011;60621;49.576;11.024;2023-02-01T00:29:53;11.90;;;5.47;;
72586;SDS011;60621;49.576;11.024;2023-02-01T00:30:59;14.35;;;6.03;;
72586;SDS011;60621;49.576;11.024;2023-02-01T00:32:02;12.05;;;5.78;;
72586;SDS011;60621;49.576;11.024;2023-02-01T00:33:04;13.15;;;6.03;;
72586;SDS011;60621;49.576;11.024;2023-02-01T00:34:05;11.25;;;5.85;;
72586;SDS011;60621;49.576;11.024;2023-02-01T00:35:08;12.75;;;6.28;;
72586;SDS011;60621;49.576;11.024;2023-02-01T00:36:09;12.20;;;5.95;;
72586;SDS011;60621;49.576;11.024;2023-02-01T00:37:11;10.73;;;5.55;;
72586;SDS011;60621;49.576;11.024;2023-02-01T00:38:13;11.18;;;5.72;;
72586;SDS011;60621;49.576;11.024;2023-02-01T00:39:16;13.73;;;6.40;;
72586;SDS011;60621;49.576;11.024;2023-02-01T00:40:20;11.00;;;5.88;;
72586;SDS011;60621;49.576;11.024;2023-02-01T00:41:24;12.20;;;6.05;;
72586;SDS011;60621;49.576;11.024;2023-02-01T00:42:26;11.88;;;5.75;;
72586;SDS011;60621;49.576;11.024;2023-02-01T00:43:28;12.77;;;5.88;;
72586;SDS011;60621;49.576;11.024;2023-02-01T00:44:29;13.05;;;5.60;;
72586;SDS011;60621;49.576;11.024;2023-02-01T00:45:34;12.07;;;5.72;;
72586;SDS011;60621;49.576;11.024;2023-02-01T00:46:36;11.60;;;5.72;;
72586;SDS011;60621;49.576;11.024;2023-02-01T00:47:38;11.77;;;5.68;;
72586;SDS011;60621;49.576;11.024;2023-02-01T00:48:39;12.82;;;5.72;;
72586;SDS011;60621;49.576;11.024;2023-02-01T00:49:41;11.00;;;5.72;;
72586;SDS011;60621;49.576;11.024;2023-02-01T00:50:43;12.30;;;5.82;;
72586;SDS011;60621;49.576;11.024;2023-02-01T00:51:44;11.38;;;5.40;;
72586;SDS011;60621;49.576;11.024;2023-02-01T00:52:46;12.88;;;4.97;;
72586;SDS011;60621;49.576;11.024;2023-02-01T00:53:47;11.05;;;5.28;;
72586;SDS011;60621;49.576;11.024;2023-02-01T00:54:49;9.48;;;4.88;;
72586;SDS011;60621;49.576;11.024;2023-02-01T00:55:51;10.20;;;5.15;;
72586;SDS011;60621;49.576;11.024;2023-02-01T00:56:53;9.98;;;5.18;;
72586;SDS011;60621;49.576;11.024;2023-02-01T00:57:54;11.07;;;5.00;;
72586;SDS011;60621;49.576;11.024;2023-02-01T00:58:56;10.60;;;5.18;;
72586;SDS011;60621;49.576;11.024;2023-02-01T00:59:57;10.50;;;5.10;;
72586;SDS011;60621;49.576;11.024;2023-02-01T01:02:05;9.35;;;5.07;;
72586;SDS011;60621;49.576;11.024;2023-02-01T01:03:07;11.77;;;5.47;;
72586;SDS011;60621;49.576;11.024;2023-02-01T01:04:18;10.40;;;5.32;;
72586;SDS011;60621;49.576;11.024;2023-02-01T01:05:20;9.57;;;4.82;;
72586;SDS011;60621;49.576;11.024;2023-02-01T01:06:25;11.23;;;5.15;;
72586;SDS011;60621;49.576;11.024;2023-02-01T01:07:28;10.07;;;4.78;;
72586;SDS011;60621;49.576;11.024;2023-02-01T01:08:30;10.85;;;5.20;;
72586;SDS011;60621;49.576;11.024;2023-02-01T01:09:32;10.00;;;5.22;;
72586;SDS011;60621;49.576;11.024;2023-02-01T01:10:34;10.40;;;4.72;;
72586;SDS011;60621;49.576;11.024;2023-02-01T01:11:36;10.30;;;4.93;;
72586;SDS011;60621;49.576;11.024;2023-02-01T01:12:39;11.05;;;5.30;;
72586;SDS011;60621;49.576;11.024;2023-02-01T01:13:42;10.25;;;5.15;;
72586;SDS011;60621;49.576;11.024;2023-02-01T01:14:44;10.25;;;4.80;;
72586;SDS011;60621;49.576;11.024;2023-02-01T01:15:45;10.65;;;5.15;;
72586;SDS011;60621;49.576;11.024;2023-02-01T01:16:47;9.52;;;4.82;;
72586;SDS011;60621;49.576;11.024;2023-02-01T01:17:51;10.68;;;5.45;;
72586;SDS011;60621;49.576;11.024;2023-02-01T01:18:53;10.38;;;5.25;;
72586;SDS011;60621;49.576;11.024;2023-02-01T01:19:55;10.38;;;5.10;;
72586;SDS011;60621;49.576;11.024;2023-02-01T01:21:00;9.27;;;4.85;;
72586;SDS011;60621;49.576;11.024;2023-02-01T01:22:02;9.55;;;4.88;;
72586;SDS011;60621;49.576;11.024;2023-02-01T01:23:05;9.68;;;4.85;;
72586;SDS011;60621;49.576;11.024;2023-02-01T01:24:07;8.32;;;4.57;;
72586;SDS011;60621;49.576;11.024;2023-02-01T01:25:08;8.77;;;4.60;;
72586;SDS011;60621;49.576;11.024;2023-02-01T01:26:12;10.10;;;4.85;;
72586;SDS011;60621;49.576;11.024;2023-02-01T01:27:16;9.15;;;4.55;;
72586;SDS011;60621;49.576;11.024;2023-02-01T01:28:23;9.20;;;4.35;;
72586;SDS011;60621;49.576;11.024;2023-02-01T01:29:25;9.95;;;5.10;;
72586;SDS011;60621;49.576;11.024;2023-02-01T01:30:27;9.02;;;4.50;;
72586;SDS011;60621;49.576;11.024;2023-02-01T01:31:28;9.88;;;4.80;;
72586;SDS011;60621;49.576;11.024;2023-02-01T01:32:31;9.00;;;4.65;;
72586;SDS011;60621;49.576;11.024;2023-02-01T01:33:33;10.45;;;4.85;;
72586;SDS011;60621;49.576;11.024;2023-02-01T01:34:34;9.10;;;4.50;;
72586;SDS011;60621;49.576;11.024;2023-02-01T01:35:36;8.60;;;4.30;;
72586;SDS011;60621;49.576;11.024;2023-02-01T01:36:37;9.93;;;4.47;;
72586;SDS011;60621;49.576;11.024;2023-02-01T01:37:39;8.13;;;4.03;;
72586;SDS011;60621;49.576;11.024;2023-02-01T01:38:41;9.82;;;4.53;;
72586;SDS011;60621;49.576;11.024;2023-02-01T01:39:43;9.10;;;4.32;;
72586;SDS011;60621;49.576;11.024;2023-02-01T01:40:45;10.18;;;4.43;;
72586;SDS011;60621;49.576;11.024;2023-02-01T01:41:47;9.55;;;4.88;;
72586;SDS011;60621;49.576;11.024;2023-02-01T01:42:49;10.63;;;4.10;;
72586;SDS011;60621;49.576;11.024;2023-02-01T01:44:04;9.63;;;4.55;;
72586;SDS011;60621;49.576;11.024;2023-02-01T01:45:29;8.90;;;4.57;;
72586;SDS011;60621;49.576;11.024;2023-02-01T01:46:39;7.82;;;4.20;;
72586;SDS011;60621;49.576;11.024;2023-02-01T01:47:46;8.45;;;4.22;;
72586;SDS011;60621;49.576;11.024;2023-02-01T01:48:57;8.95;;;4.47;;
72586;SDS011;60621;49.576;11.024;2023-02-01T01:50:01;9.40;;;4.72;;
72586;SDS011;60621;49.576;11.024;2023-02-01T01:51:04;9.65;;;4.93;;
72586;SDS011;60621;49.576;11.024;2023-02-01T01:52:11;8.57;;;4.55;;
72586;SDS011;60621;49.576;11.024;2023-02-01T01:53:14;7.40;;;3.90;;
72586;SDS011;60621;49.576;11.024;2023-02-01T01:54:29;9.65;;;4.57;;
72586;SDS011;60621;49.576;11.024;2023-02-01T01:55:36;9.10;;;4.32;;
72586;SDS011;60621;49.576;11.024;2023-02-01T01:56:43;9.82;;;4.70;;
72586;SDS011;60621;49.576;11.024;2023-02-01T01:57:50;9.25;;;4.70;;
72586;SDS011;60621;49.576;11.024;2023-02-01T01:58:58;8.32;;;4.25;;
72586;SDS011;60621;49.576;11.024;2023-02-01T02:00:03;9.52;;;4.80;;
72586;SDS011;60621;49.576;11.024;2023-02-01T02:01:08;10.48;;;4.63;;
72586;SDS011;60621;49.576;11.024;2023-02-01T02:02:11;9.40;;;4.38;;
72586;SDS011;60621;49.576;11.024;2023-02-01T02:03:18;9.68;;;4.63;;
72586;SDS011;60621;49.576;11.024;2023-02-01T02:04:22;10.85;;;4.47;;
72586;SDS011;60621;49.576;11.024;2023-02-01T02:05:25;13.52;;;4.93;;
72586;SDS011;60621;49.576;11.024;2023-02-01T02:06:39;9.05;;;4.63;;
72586;SDS011;60621;49.576;11.024;2023-02-01T02:07:49;9.15;;;4.40;;
72586;SDS011;60621;49.576;11.024;2023-02-01T02:08:54;11.05;;;4.43;;
72586;SDS011;60621;49.576;11.024;2023-02-01T02:09:56;9.25;;;5.00;;
72586;SDS011;60621;49.576;11.024;2023-02-01T02:11:01;9.38;;;4.93;;
72586;SDS011;60621;49.576;11.024;2023-02-01T02:12:02;9.25;;;4.75;;
72586;SDS011;60621;49.576;11.024;2023-02-01T02:13:05;8.90;;;4.57;;
72586;SDS011;60621;49.576;11.024;2023-02-01T02:15:09;10.75;;;4.53;;
72586;SDS011;60621;49.576;11.024;2023-02-01T02:16:19;10.80;;;4.82;;
72586;SDS011;60621;49.576;11.024;2023-02-01T02:21:15;8.77;;;4.43;;
72586;SDS011;60621;49.576;11.024;2023-02-01T02:26:34;8.65;;;4.00;;
72586;SDS011;60621;49.576;11.024;2023-02-01T02:27:51;8.00;;;4.13;;
72586;SDS011;60621;49.576;11.024;2023-02-01T02:28:49;9.65;;;4.50;;
72586;SDS011;60621;49.576;11.024;2023-02-01T02:32:03;9.15;;;4.30;;
72586;SDS011;60621;49.576;11.024;2023-02-01T02:34:49;8.52;;;4.30;;
72586;SDS011;60621;49.576;11.024;2023-02-01T02:37:38;7.50;;;4.10;;
72586;SDS011;60621;49.576;11.024;2023-02-01T02:41:24;7.70;;;3.80;;
72586;SDS011;60621;49.576;11.024;2023-02-01T02:42:53;8.68;;;4.15;;
72586;SDS011;60621;49.576;11.024;2023-02-01T02:44:27;8.07;;;4.43;;
72586;SDS011;60621;49.576;11.024;2023-02-01T02:46:01;10.80;;;4.40;;
72586;SDS011;60621;49.576;11.024;2023-02-01T02:47:36;8.07;;;4.60;;
72586;SDS011;60621;49.576;11.024;2023-02-01T02:48:52;9.20;;;4.20;;
72586;SDS011;60621;49.576;11.024;2023-02-01T02:50:10;8.85;;;4.60;;
72586;SDS011;60621;49.576;11.024;2023-02-01T02:51:45;9.52;;;4.47;;
72586;SDS011;60621;49.576;11.024;2023-02-01T02:54:35;9.95;;;4.63;;
72586;SDS011;60621;49.576;11.024;2023-02-01T02:55:50;9.10;;;4.63;;
72586;SDS011;60621;49.576;11.024;2023-02-01T02:56:53;10.55;;;4.40;;
72586;SDS011;60621;49.576;11.024;2023-02-01T02:58:16;9.05;;;4.88;;
72586;SDS011;60621;49.576;11.024;2023-02-01T02:59:37;9.48;;;4.43;;
72586;SDS011;60621;49.576;11.024;2023-02-01T03:01:00;9.15;;;4.50;;
72586;SDS011;60621;49.576;11.024;2023-02-01T03:02:22;8.77;;;4.55;;
72586;SDS011;60621;49.576;11.024;2023-02-01T03:03:43;7.72;;;4.18;;
72586;SDS011;60621;49.576;11.024;2023-02-01T03:05:10;9.48;;;4.45;;
72586;SDS011;60621;49.576;11.024;2023-02-01T03:06:14;8.80;;;4.65;;
72586;SDS011;60621;49.576;11.024;2023-02-01T03:08:45;8.82;;;4.53;;
72586;SDS011;60621;49.576;11.024;2023-02-01T03:09:46;7.97;;;4.45;;
72586;SDS011;60621;49.576;11.024;2023-02-01T03:11:58;8.52;;;4.35;;
72586;SDS011;60621;49.576;11.024;2023-02-01T03:13:37;9.20;;;4.30;;
72586;SDS011;60621;49.576;11.024;2023-02-01T03:14:43;8.88;;;4.22;;
72586;SDS011;60621;49.576;11.024;2023-02-01T03:17:15;7.43;;;4.00;;
72586;SDS011;60621;49.576;11.024;2023-02-01T03:19:09;8.80;;;4.05;;
72586;SDS011;60621;49.576;11.024;2023-02-01T03:19:48;8.75;;;4.00;;
72586;SDS011;60621;49.576;11.024;2023-02-01T03:20:53;7.65;;;3.60;;
72586;SDS011;60621;49.576;11.024;2023-02-01T03:22:06;8.00;;;3.90;;
72586;SDS011;60621;49.576;11.024;2023-02-01T03:23:11;7.57;;;4.15;;
72586;SDS011;60621;49.576;11.024;2023-02-01T03:24:23;7.45;;;3.80;;
72586;SDS011;60621;49.576;11.024;2023-02-01T03:25:34;7.50;;;3.65;;
72586;SDS011;60621;49.576;11.024;2023-02-01T03:26:36;8.52;;;4.07;;
72586;SDS011;60621;49.576;11.024;2023-02-01T03:27:42;7.20;;;3.90;;
72586;SDS011;60621;49.576;11.024;2023-02-01T03:28:55;7.57;;;3.95;;
72586;SDS011;60621;49.576;11.024;2023-02-01T03:30:13;7.35;;;4.00;;
72586;SDS011;60621;49.576;11.024;2023-02-01T03:31:24;7.32;;;3.53;;
72586;SDS011;60621;49.576;11.024;2023-02-01T03:32:26;6.30;;;3.40;;
72586;SDS011;60621;49.576;11.024;2023-02-01T03:33:27;7.60;;;3.80;;
72586;SDS011;60621;49.576;11.024;2023-02-01T03:34:31;7.38;;;3.95;;
72586;SDS011;60621;49.576;11.024;2023-02-01T03:35:48;7.18;;;3.55;;
72586;SDS011;60621;49.576;11.024;2023-02-01T03:37:00;8.60;;;3.90;;
72586;SDS011;60621;49.576;11.024;2023-02-01T03:38:12;7.75;;;4.13;;
72586;SDS011;60621;49.576;11.024;2023-02-01T03:39:22;7.05;;;3.70;;
72586;SDS011;60621;49.576;11.024;2023-02-01T03:40:28;8.80;;;4.05;;
72586;SDS011;60621;49.576;11.024;2023-02-01T03:41:40;7.90;;;4.00;;
72586;SDS011;60621;49.576;11.024;2023-02-01T03:42:46;7.28;;;3.95;;
72586;SDS011;60621;49.576;11.024;2023-02-01T03:45:13;8.38;;;4.18;;
72586;SDS011;60621;49.576;11.024;2023-02-01T03:46:32;9.15;;;4.25;;
72586;SDS011;60621;49.576;11.024;2023-02-01T03:47:43;9.25;;;4.63;;
72586;SDS011;60621;49.576;11.024;2023-02-01T03:48:49;15.85;;;5.20;;
72586;SDS011;60621;49.576;11.024;2023-02-01T03:49:55;8.63;;;4.53;;
72586;SDS011;60621;49.576;11.024;2023-02-01T03:51:01;8.55;;;4.18;;
72586;SDS011;60621;49.576;11.024;2023-02-01T03:52:06;7.82;;;4.20;;
72586;SDS011;60621;49.576;11.024;2023-02-01T03:53:15;7.80;;;4.20;;
72586;SDS011;60621;49.576;11.024;2023-02-01T03:54:20;9.82;;;4.30;;
72586;SDS011;60621;49.576;11.024;2023-02-01T03:55:23;8.77;;;4.15;;
72586;SDS011;60621;49.576;11.024;2023-02-01T03:56:27;8.95;;;4.32;;
72586;SDS011;60621;49.576;11.024;2023-02-01T03:57:31;9.18;;;4.80;;
72586;SDS011;60621;49.576;11.024;2023-02-01T03:58:36;8.63;;;4.35;;
72586;SDS011;60621;49.576;11.024;2023-02-01T03:59:41;14.52;;;7.45;;
72586;SDS011;60621;49.576;11.024;2023-02-01T04:01:58;11.45;;;5.85;;
72586;SDS011;60621;49.576;11.024;2023-02-01T04:02:59;9.48;;;4.53;;
72586;SDS011;60621;49.576;11.024;2023-02-01T04:04:01;9.57;;;4.45;;
72586;SDS011;60621;49.576;11.024;2023-02-01T04:05:02;9.20;;;4.85;;
72586;SDS011;60621;49.576;11.024;2023-02-01T04:06:05;10.82;;;5.10;;
72586;SDS011;60621;49.576;11.024;2023-02-01T04:07:06;10.50;;;4.85;;
72586;SDS011;60621;49.576;11.024;2023-02-01T04:08:08;9.40;;;4.63;;
72586;SDS011;60621;49.576;11.024;2023-02-01T04:09:09;8.73;;;4.60;;
72586;SDS011;60621;49.576;11.024;2023-02-01T04:10:11;9.10;;;4.63;;
72586;SDS011;60621;49.576;11.024;2023-02-01T04:11:13;9.15;;;4.80;;
72586;SDS011;60621;49.576;11.024;2023-02-01T04:12:15;9.82;;;5.28;;
72586;SDS011;60621;49.576;11.024;2023-02-01T04:13:16;9.93;;;4.93;;
72586;SDS011;60621;49.576;11.024;2023-02-01T04:14:18;14.18;;;5.28;;
72586;SDS011;60621;49.576;11.024;2023-02-01T04:15:19;11.85;;;5.10;;
72586;SDS011;60621;49.576;11.024;2023-02-01T04:16:21;9.52;;;4.80;;
72586;SDS011;60621;49.576;11.024;2023-02-01T04:17:23;10.35;;;5.47;;
72586;SDS011;60621;49.576;11.024;2023-02-01T04:18:25;8.80;;;4.93;;
72586;SDS011;60621;49.576;11.024;2023-02-01T04:19:27;10.35;;;5.57;;
72586;SDS011;60621;49.576;11.024;2023-02-01T04:20:29;11.18;;;5.50;;
72586;SDS011;60621;49.576;11.024;2023-02-01T04:21:30;10.05;;;5.32;;
72586;SDS011;60621;49.576;11.024;2023-02-01T04:22:32;11.70;;;5.70;;
72586;SDS011;60621;49.576;11.024;2023-02-01T04:23:33;10.40;;;5.22;;
72586;SDS011;60621;49.576;11.024;2023-02-01T04:24:35;11.90;;;5.30;;
72586;SDS011;60621;49.576;11.024;2023-02-01T04:25:37;10.82;;;5.70;;
72586;SDS011;60621;49.576;11.024;2023-02-01T04:26:39;11.65;;;5.82;;
72586;SDS011;60621;49.576;11.024;2023-02-01T04:27:41;14.07;;;6.32;;
72586;SDS011;60621;49.576;11.024;2023-02-01T04:28:42;11.25;;;5.47;;
72586;SDS011;60621;49.576;11.024;2023-02-01T04:29:44;13.80;;;6.07;;
72586;SDS011;60621;49.576;11.024;2023-02-01T04:30:50;14.07;;;5.95;;
72586;SDS011;60621;49.576;11.024;2023-02-01T04:31:52;11.95;;;6.22;;
72586;SDS011;60621;49.576;11.024;2023-02-01T04:32:53;10.90;;;6.03;;
72586;SDS011;60621;49.576;11.024;2023-02-01T04:33:55;10.43;;;5.22;;
72586;SDS011;60621;49.576;11.024;2023-02-01T04:34:58;10.55;;;5.63;;
72586;SDS011;60621;49.576;11.024;2023-02-01T04:36:00;9.25;;;5.07;;
72586;SDS011;60621;49.576;11.024;2023-02-01T04:37:02;10.95;;;5.30;;
72586;SDS011;60621;49.576;11.024;2023-02-01T04:38:03;12.73;;;5.65;;
72586;SDS011;60621;49.576;11.024;2023-02-01T04:39:05;11.32;;;5.43;;
72586;SDS011;60621;49.576;11.024;2023-02-01T04:40:06;11.90;;;5.70;;
72586;SDS011;60621;49.576;11.024;2023-02-01T04:41:08;13.40;;;5.88;;
72586;SDS011;60621;49.576;11.024;2023-02-01T04:42:10;11.35;;;5.47;;
72586;SDS011;60621;49.576;11.024;2023-02-01T04:43:11;11.07;;;5.70;;
72586;SDS011;60621;49.576;11.024;2023-02-01T04:44:14;9.38;;;5.07;;
72586;SDS011;60621;49.576;11.024;2023-02-01T04:45:17;10.70;;;5.38;;
72586;SDS011;60621;49.576;11.024;2023-02-01T04:46:19;11.48;;;6.03;;
72586;SDS011;60621;49.576;11.024;2023-02-01T04:47:21;11.32;;;5.70;;
72586;SDS011;60621;49.576;11.024;2023-02-01T04:48:22;11.60;;;5.70;;
72586;SDS011;60621;49.576;11.024;2023-02-01T04:49:25;10.50;;;5.50;;
72586;SDS011;60621;49.576;11.024;2023-02-01T04:50:27;10.80;;;5.70;;
72586;SDS011;60621;49.576;11.024;2023-02-01T04:51:29;10.57;;;5.55;;
72586;SDS011;60621;49.576;11.024;2023-02-01T04:52:31;9.70;;;5.40;;
72586;SDS011;60621;49.576;11.024;2023-02-01T04:53:33;11.32;;;5.53;;
72586;SDS011;60621;49.576;11.024;2023-02-01T04:54:35;11.32;;;5.43;;
72586;SDS011;60621;49.576;11.024;2023-02-01T04:55:36;12.50;;;5.97;;
72586;SDS011;60621;49.576;11.024;2023-02-01T04:56:37;13.00;;;5.55;;
72586;SDS011;60621;49.576;11.024;2023-02-01T04:57:39;11.10;;;5.47;;
72586;SDS011;60621;49.576;11.024;2023-02-01T04:58:41;10.15;;;5.47;;
72586;SDS011;60621;49.576;11.024;2023-02-01T04:59:43;9.48;;;5.28;;
72586;SDS011;60621;49.576;11.024;2023-02-01T05:00:44;10.82;;;5.30;;
72586;SDS011;60621;49.576;11.024;2023-02-01T05:01:46;11.57;;;5.57;;
72586;SDS011;60621;49.576;11.024;2023-02-01T05:02:49;10.45;;;5.10;;
72586;SDS011;60621;49.576;11.024;2023-02-01T05:03:50;11.05;;;5.18;;
72586;SDS011;60621;49.576;11.024;2023-02-01T05:04:52;10.45;;;5.57;;
72586;SDS011;60621;49.576;11.024;2023-02-01T05:06:56;11.15;;;5.20;;
72586;SDS011;60621;49.576;11.024;2023-02-01T05:07:58;10.73;;;4.90;;
72586;SDS011;60621;49.576;11.024;2023-02-01T05:09:00;9.40;;;4.90;;
72586;SDS011;60621;49.576;11.024;2023-02-01T05:10:01;9.70;;;4.90;;
72586;SDS011;60621;49.576;11.024;2023-02-01T05:11:03;11.07;;;5.15;;
72586;SDS011;60621;49.576;11.024;2023-02-01T05:12:04;11.57;;;5.13;;
72586;SDS011;60621;49.576;11.024;2023-02-01T05:13:25;11.13;;;5.00;;
72586;SDS011;60621;49.576;11.024;2023-02-01T05:14:45;10.13;;;4.80;;
72586;SDS011;60621;49.576;11.024;2023-02-01T05:15:46;10.68;;;5.05;;
72586;SDS011;60621;49.576;11.024;2023-02-01T05:16:48;8.82;;;5.00;;
72586;SDS011;60621;49.576;11.024;2023-02-01T05:17:50;10.02;;;5.10;;
72586;SDS011;60621;49.576;11.024;2023-02-01T05:18:51;10.40;;;4.75;;
72586;SDS011;60621;49.576;11.024;2023-02-01T05:19:53;9.45;;;4.93;;
72586;SDS011;60621;49.576;11.024;2023-02-01T05:20:55;8.80;;;4.70;;
72586;SDS011;60621;49.576;11.024;2023-02-01T05:21:57;8.48;;;4.30;;
72586;SDS011;60621;49.576;11.024;2023-02-01T05:22:59;9.32;;;4.85;;
72586;SDS011;60621;49.576;11.024;2023-02-01T05:24:00;8.60;;;4.35;;
72586;SDS011;60621;49.576;11.024;2023-02-01T05:25:10;8.43;;;4.63;;
72586;SDS011;60621;49.576;11.024;2023-02-01T05:26:12;11.38;;;4.70;;
72586;SDS011;60621;49.576;11.024;2023-02-01T05:27:13;11.82;;;4.30;;
72586;SDS011;60621;49.576;11.024;2023-02-01T05:28:15;9.05;;;4.00;;
72586;SDS011;60621;49.576;11.024;2023-02-01T05:29:16;8.98;;;4.68;;
72586;SDS011;60621;49.576;11.024;2023-02-01T05:30:18;8.68;;;4.03;;
72586;SDS011;60621;49.576;11.024;2023-02-01T05:31:20;9.32;;;4.07;;
72586;SDS011;60621;49.576;11.024;2023-02-01T05:32:23;7.68;;;3.70;;
72586;SDS011;60621;49.576;11.024;2023-02-01T05:33:25;10.32;;;3.97;;
72586;SDS011;60621;49.576;11.024;2023-02-01T05:34:26;7.43;;;3.70;;
72586;SDS011;60621;49.576;11.024;2023-02-01T05:35:28;8.85;;;3.45;;
72586;SDS011;60621;49.576;11.024;2023-02-01T05:36:29;9.50;;;3.13;;
72586;SDS011;60621;49.576;11.024;2023-02-01T05:37:31;7.95;;;3.20;;
72586;SDS011;60621;49.576;11.024;2023-02-01T05:38:32;7.88;;;3.13;;
72586;SDS011;60621;49.576;11.024;2023-02-01T05:39:34;11.55;;;3.58;;
72586;SDS011;60621;49.576;11.024;2023-02-01T05:40:35;10.57;;;3.20;;
72586;SDS011;60621;49.576;11.024;2023-02-01T05:41:37;8.20;;;2.50;;
72586;SDS011;60621;49.576;11.024;2023-02-01T05:42:38;8.30;;;2.58;;
72586;SDS011;60621;49.576;11.024;2023-02-01T05:43:40;7.45;;;2.85;;
72586;SDS011;60621;49.576;11.024;2023-02-01T05:44:41;9.85;;;2.60;;
72586;SDS011;60621;49.576;11.024;2023-02-01T05:45:43;9.93;;;3.03;;
72586;SDS011;60621;49.576;11.024;2023-02-01T05:46:44;6.63;;;2.30;;
72586;SDS011;60621;49.576;11.024;2023-02-01T05:47:46;9.60;;;2.58;;
72586;SDS011;60621;49.576;11.024;2023-02-01T05:48:48;11.20;;;2.63;;
72586;SDS011;60621;49.576;11.024;2023-02-01T05:49:49;10.80;;;2.30;;
72586;SDS011;60621;49.576;11.024;2023-02-01T05:50:51;6.70;;;2.05;;
72586;SDS011;60621;49.576;11.024;2023-02-01T05:51:52;8.10;;;2.30;;
72586;SDS011;60621;49.576;11.024;2023-02-01T05:52:54;7.03;;;2.25;;
72586;SDS011;60621;49.576;11.024;2023-02-01T05:53:55;6.38;;;2.15;;
72586;SDS011;60621;49.576;11.024;2023-02-01T05:54:57;6.57;;;2.00;;
72586;SDS011;60621;49.576;11.024;2023-02-01T05:55:58;7.18;;;2.03;;
72586;SDS011;60621;49.576;11.024;2023-02-01T05:57:00;8.43;;;2.22;;
72586;SDS011;60621;49.576;11.024;2023-02-01T05:58:02;6.85;;;2.30;;
72586;SDS011;60621;49.576;11.024;2023-02-01T05:59:03;8.15;;;2.22;;
72586;SDS011;60621;49.576;11.024;2023-02-01T06:00:05;7.38;;;2.30;;
72586;SDS011;60621;49.576;11.024;2023-02-01T06:01:07;6.78;;;2.40;;
72586;SDS011;60621;49.576;11.024;2023-02-01T06:02:08;5.82;;;2.10;;
72586;SDS011;60621;49.576;11.024;2023-02-01T06:03:11;4.82;;;2.10;;
72586;SDS011;60621;49.576;11.024;2023-02-01T06:04:12;6.65;;;2.22;;
72586;SDS011;60621;49.576;11.024;2023-02-01T06:05:14;5.55;;;1.90;;
72586;SDS011;60621;49.576;11.024;2023-02-01T06:06:15;5.03;;;1.98;;
72586;SDS011;60621;49.576;11.024;2023-02-01T06:07:17;6.05;;;2.28;;
72586;SDS011;60621;49.576;11.024;2023-02-01T06:08:19;5.03;;;2.20;;
72586;SDS011;60621;49.576;11.024;2023-02-01T06:09:20;5.70;;;2.00;;
72586;SDS011;60621;49.576;11.024;2023-02-01T06:10:22;7.65;;;2.10;;
72586;SDS011;60621;49.576;11.024;2023-02-01T06:11:24;5.72;;;2.10;;
72586;SDS011;60621;49.576;11.024;2023-02-01T06:12:33;5.72;;;2.15;;
72586;SDS011;60621;49.576;11.024;2023-02-01T06:13:34;4.70;;;2.10;;
72586;SDS011;60621;49.576;11.024;2023-02-01T06:14:36;4.85;;;1.77;;
72586;SDS011;60621;49.576;11.024;2023-02-01T06:15:38;4.60;;;1.80;;
72586;SDS011;60621;49.576;11.024;2023-02-01T06:16:39;5.47;;;2.40;;
72586;SDS011;60621;49.576;11.024;2023-02-01T06:17:41;7.93;;;2.10;;
72586;SDS011;60621;49.576;11.024;2023-02-01T06:18:44;6.03;;;1.92;;
72586;SDS011;60621;49.576;11.024;2023-02-01T06:19:46;7.90;;;2.35;;
72586;SDS011;60621;49.576;11.024;2023-02-01T06:20:56;5.38;;;2.10;;
72586;SDS011;60621;49.576;11.024;2023-02-01T06:22:01;4.65;;;2.22;;
72586;SDS011;60621;49.576;11.024;2023-02-01T06:23:02;6.68;;;2.25;;
72586;SDS011;60621;49.576;11.024;2023-02-01T06:24:07;8.27;;;2.10;;
72586;SDS011;60621;49.576;11.024;2023-02-01T06:25:09;6.05;;;2.00;;
72586;SDS011;60621;49.576;11.024;2023-02-01T06:26:11;4.97;;;2.15;;
72586;SDS011;60621;49.576;11.024;2023-02-01T06:27:12;4.50;;;1.70;;
72586;SDS011;60621;49.576;11.024;2023-02-01T06:28:14;4.82;;;1.83;;
72586;SDS011;60621;49.576;11.024;2023-02-01T06:29:15;4.57;;;1.75;;
72586;SDS011;60621;49.576;11.024;2023-02-01T06:30:17;4.50;;;1.80;;
72586;SDS011;60621;49.576;11.024;2023-02-01T06:31:19;7.30;;;2.10;;
72586;SDS011;60621;49.576;11.024;2023-02-01T06:32:20;4.95;;;2.10;;
72586;SDS011;60621;49.576;11.024;2023-02-01T06:33:22;4.60;;;1.70;;
72586;SDS011;60621;49.576;11.024;2023-02-01T06:34:23;6.40;;;1.70;;
72586;SDS011;60621;49.576;11.024;2023-02-01T06:35:25;4.70;;;1.40;;
72586;SDS011;60621;49.576;11.024;2023-02-01T06:36:27;4.68;;;1.60;;
72586;SDS011;60621;49.576;11.024;2023-02-01T06:37:29;4.97;;;1.55;;
72586;SDS011;60621;49.576;11.024;2023-02-01T06:38:30;6.43;;;1.60;;
72586;SDS011;60621;49.576;11.024;2023-02-01T06:39:32;4.10;;;1.60;;
72586;SDS011;60621;49.576;11.024;2023-02-01T06:40:34;4.10;;;1.70;;
72586;SDS011;60621;49.576;11.024;2023-02-01T06:41:36;4.45;;;1.73;;
72586;SDS011;60621;49.576;11.024;2023-02-01T06:42:37;4.18;;;1.50;;
72586;SDS011;60621;49.576;11.024;2023-02-01T06:43:39;3.67;;;1.33;;
72586;SDS011;60621;49.576;11.024;2023-02-01T06:44:41;5.47;;;1.52;;
72586;SDS011;60621;49.576;11.024;2023-02-01T06:45:43;3.40;;;1.23;;
72586;SDS011;60621;49.576;11.024;2023-02-01T06:46:44;4.25;;;1.50;;
72586;SDS011;60621;49.576;11.024;2023-02-01T06:47:45;3.55;;;1.40;;
72586;SDS011;60621;49.576;11.024;2023-02-01T06:48:47;3.95;;;1.42;;
72586;SDS011;60621;49.576;11.024;2023-02-01T06:50:51;3.55;;;1.45;;